Time;durP1;ratioP1;P1;durP2;ratioP2;P2;SDS_P1;SDS_P2;PMS_P1;PMS_P2;Temp;Humidity;BMP_temperature;BMP_pressure;BME280_temperature;BME280_humidity;BME280_pressure;Samples;Min_cycle;Max_cycle;Signal;HPM_P1;HPM_P2
2024/02/24 00:07:15;;;;;;;15.60;10.40;;;;;;;10.69;66.48;98397.14;102638;1292;600890;-25
2024/02/24 00:09:43;;;;;;;19.60;11.60;;;;;;;10.54;67.07;98394.53;104811;1266;61081;-25
2024/02/24 00:12:11;;;;;;;18.50;10.60;;;;;;;10.43;67.44;98398.42;104802;1268;61139;-25
2024/02/24 00:14:39;;;;;;;13.10;8.20;;;;;;;10.40;68.12;98399.60;104782;1272;72199;-25
2024/02/24 00:17:07;;;;;;;19.00;11.40;;;;;;;10.81;66.73;98397.59;104777;1272;74271;-25
2024/02/24 00:19:35;;;;;;;18.30;9.60;;;;;;;10.83;66.33;98395.20;104781;1273;72672;-25
2024/02/24 00:22:03;;;;;;;17.60;9.40;;;;;;;10.88;65.99;98396.83;104714;1269;199563;-25
2024/02/24 00:32:07;;;;;;;16.50;9.20;;;;;;;10.88;66.65;98398.20;102743;1294;600093;-25
2024/02/24 00:34:35;;;;;;;16.60;9.50;;;;;;;10.80;66.40;98396.50;104835;1271;61242;-25
2024/02/24 00:37:04;;;;;;;14.70;8.70;;;;;;;10.74;66.42;98395.13;104878;1266;61171;-25
2024/02/24 00:39:32;;;;;;;18.10;10.90;;;;;;;10.54;67.02;98398.55;104849;1271;71732;-25
2024/02/24 00:42:00;;;;;;;18.80;9.40;;;;;;;10.35;67.78;98401.05;104905;1269;74257;-25
2024/02/24 00:44:28;;;;;;;14.90;9.30;;;;;;;10.53;67.73;98402.77;104868;1266;72686;-25
2024/02/24 00:46:55;;;;;;;15.00;9.70;;;;;;;10.77;66.81;98404.25;105003;1269;206725;-25
2024/02/24 00:49:23;;;;;;;16.90;9.10;;;;;;;10.81;66.21;98407.48;105132;1264;61100;-26
2024/02/24 00:51:51;;;;;;;14.50;10.40;;;;;;;10.62;67.07;98400.23;105128;1263;72203;-25
2024/02/24 01:02:14;;;;;;;21.10;11.10;;;;;;;10.61;67.87;98399.08;102635;1289;615078;-25
2024/02/24 01:04:42;;;;;;;19.70;12.30;;;;;;;10.76;66.72;98397.56;105190;1269;61145;-25
2024/02/24 01:07:10;;;;;;;18.80;12.00;;;;;;;10.64;66.96;98399.84;104999;1269;61186;-25
2024/02/24 01:09:38;;;;;;;17.70;10.40;;;;;;;10.39;67.80;98391.94;105021;1267;71901;-25
2024/02/24 01:12:05;;;;;;;20.90;10.60;;;;;;;10.11;68.90;98396.87;104870;1266;74298;-25
2024/02/24 01:14:32;;;;;;;13.10;8.40;;;;;;;9.96;69.61;98398.98;104776;1266;311857;-26
2024/02/24 01:17:00;;;;;;;18.30;9.70;;;;;;;10.37;68.45;98396.57;105151;1263;61126;-25
2024/02/24 01:19:27;;;;;;;18.00;10.70;;;;;;;10.55;67.60;98393.39;105231;1264;61049;-25
2024/02/24 01:21:54;;;;;;;20.90;11.40;;;;;;;10.45;67.70;98393.83;105252;1263;71688;-25
2024/02/24 01:24:24;;;;;;;19.80;10.00;;;;;;;10.33;68.01;98394.29;105215;1264;74095;-25
2024/02/24 01:26:51;;;;;;;16.40;10.30;;;;;;;10.10;68.72;98390.09;105198;1263;72646;-25
2024/02/24 01:29:18;;;;;;;17.00;9.70;;;;;;;9.84;70.11;98395.55;105144;1264;61733;-25
2024/02/24 01:31:45;;;;;;;13.60;9.00;;;;;;;10.23;69.22;98395.70;105193;1267;61176;-25
2024/02/24 01:34:12;;;;;;;17.80;11.30;;;;;;;10.55;67.73;98392.90;105061;1264;72866;-25
2024/02/24 01:36:40;;;;;;;17.60;11.00;;;;;;;10.51;67.44;98392.39;105207;1263;74821;-25
2024/02/24 01:39:08;;;;;;;15.30;10.20;;;;;;;10.31;68.15;98386.72;105194;1267;72516;-25
2024/02/24 01:41:35;;;;;;;18.30;11.20;;;;;;;10.01;69.18;98383.31;105139;1269;61104;-25
2024/02/24 01:44:02;;;;;;;20.20;10.70;;;;;;;9.72;70.52;98389.36;105191;1267;61115;-25
2024/02/24 01:46:31;;;;;;;17.20;11.20;;;;;;;10.11;69.79;98392.96;105207;1264;72853;-25
2024/02/24 01:48:58;;;;;;;14.70;10.20;;;;;;;10.44;68.28;98390.09;104997;1263;74885;-25
2024/02/24 01:51:26;;;;;;;18.40;10.70;;;;;;;10.24;68.62;98392.34;105010;1263;72638;-25
2024/02/24 01:53:53;;;;;;;12.50;9.30;;;;;;;10.21;68.54;98398.89;104930;1263;61142;-25
2024/02/24 01:56:20;;;;;;;15.00;10.70;;;;;;;9.94;69.57;98399.35;105112;1267;61191;-25
2024/02/24 01:58:47;;;;;;;15.30;9.80;;;;;;;9.74;70.52;98407.86;105167;1264;72687;-25
2024/02/24 02:01:16;;;;;;;15.60;10.60;;;;;;;10.08;69.77;98405.05;104954;1263;74320;-25
2024/02/24 02:03:44;;;;;;;14.40;10.10;;;;;;;10.20;69.08;98404.52;105401;1257;72454;-25
2024/02/24 02:06:11;;;;;;;20.30;10.80;;;;;;;10.29;68.59;98402.34;105504;1257;61058;-25
2024/02/24 02:08:38;;;;;;;19.30;11.80;;;;;;;10.12;69.07;98406.98;105458;1257;61751;-25
2024/02/24 02:11:05;;;;;;;19.60;11.70;;;;;;;9.86;69.90;98411.64;105527;1258;72854;-25
2024/02/24 02:13:33;;;;;;;17.00;9.90;;;;;;;9.79;70.36;98409.19;105384;1257;74452;-28
2024/02/24 02:16:00;;;;;;;16.20;9.60;;;;;;;10.21;69.26;98409.79;105491;1257;72464;-28
2024/02/24 02:18:27;;;;;;;17.40;10.10;;;;;;;10.42;68.19;98406.38;105304;1257;61701;-25
2024/02/24 02:20:57;;;;;;;19.80;11.20;;;;;;;10.49;67.70;98411.45;105540;1257;61180;-27
2024/02/24 02:23:25;;;;;;;15.70;9.20;;;;;;;10.28;67.98;98410.07;105489;1257;72940;-28
2024/02/24 02:25:52;;;;;;;19.30;11.40;;;;;;;10.07;68.79;98408.84;105629;1257;74055;-27
2024/02/24 02:28:18;;;;;;;20.00;11.10;;;;;;;9.81;69.93;98414.05;105277;1257;73219;-27
2024/02/24 02:30:46;;;;;;;19.00;8.80;;;;;;;10.19;69.15;98408.71;105387;1257;61021;-27
2024/02/24 02:33:12;;;;;;;20.00;11.50;;;;;;;10.38;68.11;98405.35;105586;1258;61137;-27
2024/02/24 02:35:40;;;;;;;15.10;8.60;;;;;;;10.25;68.29;98407.86;105605;1258;73619;-27
2024/02/24 02:38:09;;;;;;;18.40;10.50;;;;;;;10.06;69.11;98407.81;105637;1257;74711;-27
2024/02/24 02:40:36;;;;;;;22.90;13.20;;;;;;;9.87;69.70;98401.21;105612;1257;72494;-27
2024/02/24 02:43:04;;;;;;;16.00;9.10;;;;;;;9.71;70.46;98404.49;105480;1257;61937;-27
2024/02/24 02:45:31;;;;;;;19.50;11.00;;;;;;;10.16;68.95;98413.91;105586;1261;61102;-27
2024/02/24 02:47:59;;;;;;;17.30;10.50;;;;;;;10.29;68.54;98413.09;105589;1257;73590;-26
2024/02/24 02:50:26;;;;;;;20.30;11.70;;;;;;;10.25;68.31;98415.83;105589;1258;74292;-27
2024/02/24 02:52:53;;;;;;;25.00;12.90;;;;;;;10.04;68.80;98414.19;105426;1257;72630;-27
2024/02/24 02:55:21;;;;;;;18.60;11.00;;;;;;;9.81;69.40;98419.73;105273;1260;61147;-27
2024/02/24 02:57:49;;;;;;;19.00;12.10;;;;;;;9.74;70.39;98424.99;105570;1263;61253;-26
2024/02/24 03:00:16;;;;;;;16.80;9.60;;;;;;;10.10;69.39;98430.59;105504;1257;72896;-27
2024/02/24 03:02:44;;;;;;;21.40;11.50;;;;;;;10.15;68.77;98427.64;105417;1257;74870;-28
2024/02/24 03:05:11;;;;;;;23.10;12.70;;;;;;;10.07;68.81;98431.80;105317;1257;73282;-28
2024/02/24 03:07:38;;;;;;;13.20;8.70;;;;;;;9.85;69.27;98433.92;105225;1261;61179;-27
2024/02/24 03:10:06;;;;;;;24.30;11.90;;;;;;;9.62;70.14;98429.16;105366;1258;61139;-27
2024/02/24 03:12:33;;;;;;;19.30;11.20;;;;;;;9.68;70.45;98435.24;105341;1263;71874;-26
2024/02/24 03:15:01;;;;;;;22.70;14.00;;;;;;;10.18;68.77;98431.08;105638;1257;74363;-27
2024/02/24 03:17:28;;;;;;;25.90;13.40;;;;;;;10.24;68.35;98426.88;105588;1258;72687;-27
2024/02/24 03:19:56;;;;;;;20.70;13.20;;;;;;;10.01;68.80;98430.79;105286;1257;61103;-27
2024/02/24 03:22:23;;;;;;;26.10;14.90;;;;;;;9.84;69.46;98433.19;105352;1262;61189;-27
2024/02/24 03:24:50;;;;;;;24.30;14.60;;;;;;;9.52;70.44;98435.60;105534;1258;72939;-27
2024/02/24 03:27:17;;;;;;;16.00;10.50;;;;;;;9.55;70.92;98433.45;105487;1260;74271;-26
2024/02/24 03:29:44;;;;;;;18.20;11.50;;;;;;;10.03;69.42;98430.30;105431;1257;71788;-27
2024/02/24 03:32:11;;;;;;;21.60;13.20;;;;;;;10.21;68.32;98432.15;105261;1257;61055;-27
2024/02/24 03:34:39;;;;;;;21.10;12.30;;;;;;;10.01;68.64;98433.59;105453;1257;61170;-27
2024/02/24 03:37:06;;;;;;;19.30;12.30;;;;;;;9.62;69.98;98435.23;105266;1257;73158;-27
2024/02/24 03:39:33;;;;;;;23.60;12.50;;;;;;;9.40;70.99;98443.40;105279;1262;74951;-27
2024/02/24 03:42:00;;;;;;;25.20;13.20;;;;;;;9.46;71.43;98444.65;105519;1257;72784;-26
2024/02/24 03:44:27;;;;;;;27.30;13.60;;;;;;;10.05;69.17;98445.55;105487;1256;61185;-27
2024/02/24 03:46:54;;;;;;;20.20;13.00;;;;;;;10.11;68.64;98444.02;105522;1261;61100;-27
2024/02/24 03:49:22;;;;;;;30.30;15.70;;;;;;;9.97;68.59;98440.54;105222;1257;73442;-27
2024/02/24 03:51:49;;;;;;;29.20;16.20;;;;;;;9.76;69.38;98439.56;105338;1257;74095;-27
2024/02/24 03:54:16;;;;;;;25.40;13.90;;;;;;;9.38;70.92;98442.48;105419;1257;72609;-27
2024/02/24 03:56:43;;;;;;;21.80;12.80;;;;;;;9.73;70.23;98447.27;105225;1257;61061;-27
2024/02/24 03:59:10;;;;;;;24.50;13.70;;;;;;;9.96;69.19;98445.44;105445;1263;61100;-27
2024/02/24 04:01:40;;;;;;;28.10;15.30;;;;;;;9.83;69.40;98443.98;105522;1258;72769;-26
2024/02/24 04:04:07;;;;;;;26.40;13.90;;;;;;;9.70;69.79;98447.24;105479;1258;73167;-27
2024/02/24 04:06:34;;;;;;;27.00;15.30;;;;;;;9.47;70.46;98444.66;105634;1257;72692;-27
2024/02/24 04:09:02;;;;;;;17.90;12.20;;;;;;;9.44;71.24;98445.32;105446;1256;61982;-27
2024/02/24 04:11:29;;;;;;;24.20;12.20;;;;;;;9.84;69.82;98440.80;105232;1262;61191;-27
2024/02/24 04:13:57;;;;;;;19.40;12.80;;;;;;;9.77;69.79;98439.36;105474;1257;72873;-27
2024/02/24 04:16:24;;;;;;;27.70;16.70;;;;;;;9.69;69.84;98435.67;105472;1258;74817;-27
2024/02/24 04:18:51;;;;;;;32.50;14.20;;;;;;;9.52;70.36;98434.56;105465;1257;72820;-27
2024/02/24 04:21:20;;;;;;;18.70;12.60;;;;;;;9.36;70.89;98436.13;105351;1258;61092;-27
2024/02/24 04:23:48;;;;;;;22.40;12.70;;;;;;;9.38;71.43;98424.30;105337;1262;61874;-27
2024/02/24 04:26:15;;;;;;;23.80;13.10;;;;;;;9.79;69.90;98425.84;105336;1257;72901;-27
2024/02/24 04:28:42;;;;;;;26.20;14.90;;;;;;;9.77;69.53;98431.21;105520;1257;74635;-26
2024/02/24 04:31:10;;;;;;;16.80;12.10;;;;;;;9.58;70.19;98431.44;105520;1257;72659;-26
2024/02/24 04:33:36;;;;;;;25.40;14.50;;;;;;;9.35;71.21;98429.44;105406;1257;61086;-27
2024/02/24 04:36:05;;;;;;;19.60;12.70;;;;;;;9.20;71.86;98425.84;105281;1263;61189;-26
2024/02/24 04:38:32;;;;;;;23.30;13.10;;;;;;;9.64;70.52;98422.79;105337;1258;72717;-27
2024/02/24 04:40:59;;;;;;;22.50;11.90;;;;;;;9.81;69.62;98424.05;105273;1257;74386;-27
2024/02/24 04:43:26;;;;;;;20.30;13.40;;;;;;;9.68;69.85;98421.36;105511;1257;72531;-27
2024/02/24 04:45:54;;;;;;;31.50;16.20;;;;;;;9.38;70.95;98421.40;105635;1257;61154;-26
2024/02/24 04:48:21;;;;;;;21.60;11.00;;;;;;;9.16;71.82;98429.13;105279;1263;61089;-26
2024/02/24 04:50:48;;;;;;;28.40;16.10;;;;;;;9.38;71.42;98426.70;105457;1258;73690;-26
2024/02/24 04:53:16;;;;;;;29.00;16.20;;;;;;;9.70;69.81;98435.77;105555;1257;74181;-27
2024/02/24 04:55:43;;;;;;;23.00;14.50;;;;;;;9.59;69.96;98431.38;105511;1263;72636;-27
2024/02/24 04:58:10;;;;;;;25.70;16.30;;;;;;;9.40;70.80;98434.37;105254;1257;61159;-26
2024/02/24 05:00:37;;;;;;;28.00;16.70;;;;;;;9.27;71.25;98437.42;105326;1263;61267;-27
2024/02/24 05:03:04;;;;;;;19.50;11.00;;;;;;;9.32;71.57;98447.73;105518;1257;73442;-27
2024/02/24 05:05:31;;;;;;;21.40;14.30;;;;;;;9.70;69.88;98448.75;105579;1257;73161;-27
2024/02/24 05:07:58;;;;;;;24.30;13.70;;;;;;;9.75;69.54;98457.18;105585;1257;72805;-27
2024/02/24 05:10:25;;;;;;;23.80;14.90;;;;;;;9.60;69.66;98466.44;105641;1257;61167;-27
2024/02/24 05:12:52;;;;;;;30.70;16.60;;;;;;;9.29;71.02;98466.09;105568;1261;61106;-26
2024/02/24 05:15:19;;;;;;;32.60;17.60;;;;;;;8.92;72.71;98460.57;105550;1257;73802;-26
2024/02/24 05:17:46;;;;;;;20.30;12.20;;;;;;;9.37;71.46;98463.17;105579;1258;74260;-27
2024/02/24 05:20:14;;;;;;;20.70;13.10;;;;;;;9.72;69.83;98466.29;105283;1257;73235;-28
2024/02/24 05:22:41;;;;;;;25.70;16.10;;;;;;;9.57;70.14;98465.49;105447;1257;61138;-28
2024/02/24 05:25:12;;;;;;;27.40;15.30;;;;;;;9.30;70.84;98465.48;105621;1263;61128;-27
2024/02/24 05:27:39;;;;;;;26.40;15.80;;;;;;;8.88;72.47;98469.04;105591;1258;74334;-26
2024/02/24 05:30:08;;;;;;;26.80;14.60;;;;;;;9.21;72.21;98471.80;105523;1260;74259;-28
2024/02/24 05:32:35;;;;;;;25.40;14.70;;;;;;;9.51;70.54;98469.13;105350;1261;72671;-26
2024/02/24 05:35:03;;;;;;;29.30;16.20;;;;;;;9.48;70.55;98471.99;105592;1257;61101;-26
2024/02/24 05:37:30;;;;;;;34.10;17.50;;;;;;;9.26;70.95;98478.55;105433;1257;60997;-26
2024/02/24 05:39:58;;;;;;;26.50;13.50;;;;;;;9.03;72.07;98483.75;105554;1263;74387;-25
2024/02/24 05:42:26;;;;;;;24.30;14.10;;;;;;;9.19;72.06;98481.85;105355;1262;74775;-26
2024/02/24 05:44:53;;;;;;;25.60;15.00;;;;;;;9.49;70.38;98489.09;105444;1259;72520;-25
2024/02/24 05:47:20;;;;;;;26.60;13.30;;;;;;;9.59;70.02;98493.19;105647;1257;61049;-26
2024/02/24 05:49:47;;;;;;;27.10;15.00;;;;;;;9.37;70.38;98497.00;105435;1262;61131;-27
2024/02/24 05:52:16;;;;;;;20.90;14.30;;;;;;;9.10;71.56;98490.79;105610;1257;74312;-26
2024/02/24 05:54:43;;;;;;;23.40;13.40;;;;;;;9.10;72.18;98496.14;105469;1262;74298;-26
2024/02/24 05:57:10;;;;;;;24.70;14.80;;;;;;;9.58;70.35;98493.65;105606;1258;72669;-27
2024/02/24 05:59:37;;;;;;;26.50;15.20;;;;;;;9.65;69.90;98493.05;105214;1257;61159;-26
2024/02/24 06:02:05;;;;;;;20.70;13.80;;;;;;;9.48;70.31;98494.20;105322;1261;61099;-26
2024/02/24 06:04:31;;;;;;;25.20;16.20;;;;;;;9.23;71.27;98502.20;105527;1258;73793;-26
2024/02/24 06:06:58;;;;;;;28.90;17.10;;;;;;;9.10;72.05;98503.26;105538;1257;74404;-26
2024/02/24 06:09:25;;;;;;;19.90;11.90;;;;;;;9.50;70.78;98501.28;105208;1257;73151;-26
2024/02/24 06:11:53;;;;;;;30.40;15.90;;;;;;;9.53;70.37;98501.02;105555;1257;61066;-26
2024/02/24 06:14:20;;;;;;;30.60;18.20;;;;;;;9.44;70.59;98497.45;105534;1262;61160;-26
2024/02/24 06:16:47;;;;;;;29.70;16.70;;;;;;;9.19;71.22;98502.65;105297;1257;73617;-26
2024/02/24 06:19:14;;;;;;;29.10;14.70;;;;;;;9.03;72.13;98505.88;105321;1257;74254;-26
2024/02/24 06:21:41;;;;;;;30.40;19.60;;;;;;;9.17;72.12;98512.48;105231;1257;72690;-26
2024/02/24 06:24:08;;;;;;;23.70;15.60;;;;;;;9.50;70.63;98518.90;105475;1263;61281;-26
2024/02/24 06:26:36;;;;;;;26.40;16.80;;;;;;;9.54;70.11;98517.77;105627;1257;61090;-26
2024/02/24 06:29:03;;;;;;;29.50;16.80;;;;;;;9.45;70.02;98516.04;105636;1257;73875;-26
2024/02/24 06:31:30;;;;;;;26.50;18.00;;;;;;;9.17;70.80;98503.33;105313;1257;73435;-26
2024/02/24 06:33:58;;;;;;;29.30;18.00;;;;;;;8.93;72.25;98499.26;105326;1257;72697;-26
2024/02/24 06:36:25;;;;;;;31.00;18.40;;;;;;;9.38;70.79;98497.60;105473;1256;60981;-26
2024/02/24 06:38:52;;;;;;;28.50;17.90;;;;;;;9.49;70.00;98493.02;105515;1262;61196;-26
2024/02/24 06:41:23;;;;;;;29.20;16.70;;;;;;;9.36;70.16;98491.17;105642;1257;73805;-26
2024/02/24 06:43:51;;;;;;;27.10;16.50;;;;;;;9.11;71.04;98493.30;105615;1257;74406;-26
2024/02/24 06:46:18;;;;;;;23.20;15.40;;;;;;;8.89;72.15;98484.01;105607;1262;72647;-26
2024/02/24 06:48:45;;;;;;;23.60;14.00;;;;;;;9.26;71.16;98488.61;105503;1257;61134;-26
2024/02/24 06:51:13;;;;;;;25.80;15.70;;;;;;;9.50;69.81;98491.41;105424;1263;62061;-26
2024/02/24 06:53:42;;;;;;;24.60;15.90;;;;;;;9.51;69.24;98495.45;105356;1258;75655;-26
2024/02/24 06:56:09;;;;;;;28.60;18.30;;;;;;;9.40;69.55;98500.51;105196;1264;74006;-26
2024/02/24 06:58:36;;;;;;;23.20;12.90;;;;;;;9.10;70.86;98500.66;105499;1257;73289;-26
2024/02/24 07:01:04;;;;;;;29.20;14.70;;;;;;;9.25;70.74;98502.54;105254;1258;61153;-26
2024/02/24 07:03:32;;;;;;;34.50;20.80;;;;;;;9.66;69.12;98503.55;105397;1263;61134;-26
2024/02/24 07:06:01;;;;;;;25.90;16.30;;;;;;;9.48;68.86;98499.50;105554;1263;73765;-25
2024/02/24 07:08:28;;;;;;;26.00;13.30;;;;;;;9.36;69.34;98498.66;105515;1263;73437;-25
2024/02/24 07:10:56;;;;;;;34.20;16.90;;;;;;;9.28;69.91;98504.54;105337;1257;72443;-26
2024/02/24 07:13:23;;;;;;;26.50;17.80;;;;;;;9.28;70.01;98508.36;105309;1258;61083;-25
2024/02/24 07:15:50;;;;;;;25.20;15.90;;;;;;;9.64;68.74;98508.77;105379;1257;61272;-26
2024/02/24 07:18:17;;;;;;;24.20;14.60;;;;;;;9.52;68.36;98507.85;105527;1257;73708;-26
2024/02/24 07:20:45;;;;;;;28.20;16.20;;;;;;;9.23;69.91;98509.13;105529;1257;74331;-25
2024/02/24 07:23:12;;;;;;;26.70;13.90;;;;;;;9.11;70.22;98509.73;105404;1257;72540;-26
2024/02/24 07:25:41;;;;;;;24.60;13.90;;;;;;;8.98;70.77;98523.25;105282;1263;61085;-25
2024/02/24 07:28:08;;;;;;;19.00;12.50;;;;;;;9.50;69.20;98524.48;105292;1261;61102;-26
2024/02/24 07:30:35;;;;;;;25.10;15.20;;;;;;;9.66;67.99;98522.40;105545;1263;73667;-25
2024/02/24 07:33:03;;;;;;;26.40;15.00;;;;;;;9.54;68.21;98535.05;105542;1258;74377;-25
2024/02/24 07:35:31;;;;;;;24.50;14.40;;;;;;;9.21;69.46;98523.98;105341;1257;72653;-25
2024/02/24 07:37:58;;;;;;;27.00;14.20;;;;;;;9.03;70.36;98525.11;105684;1257;61128;-26
2024/02/24 07:40:25;;;;;;;24.80;13.70;;;;;;;9.12;70.05;98527.32;105575;1263;61246;-25
2024/02/24 07:42:54;;;;;;;16.70;10.80;;;;;;;9.63;68.37;98524.06;105581;1262;73526;-25
2024/02/24 07:45:25;;;;;;;24.90;15.90;;;;;;;9.82;67.79;98518.99;105557;1263;74342;-25
2024/02/24 07:47:54;;;;;;;19.40;13.10;;;;;;;9.65;68.01;98519.95;105476;1257;72509;-26
2024/02/24 07:50:21;;;;;;;27.50;15.40;;;;;;;9.57;68.21;98519.89;105377;1261;61020;-26
2024/02/24 07:52:49;;;;;;;23.60;14.20;;;;;;;9.40;68.85;98519.92;105403;1262;61134;-25
2024/02/24 07:55:16;;;;;;;23.20;14.80;;;;;;;9.62;68.66;98517.52;105273;1258;73811;-26
2024/02/24 07:57:43;;;;;;;24.30;14.90;;;;;;;9.82;67.22;98512.42;105474;1263;74151;-26
2024/02/24 08:00:12;;;;;;;21.20;13.30;;;;;;;9.84;66.84;98515.17;105340;1261;72905;-26
2024/02/24 08:02:39;;;;;;;25.10;13.50;;;;;;;9.94;66.86;98513.22;105294;1263;61741;-25
2024/02/24 08:05:07;;;;;;;23.10;12.00;;;;;;;9.94;66.93;98513.05;105457;1260;61189;-25
2024/02/24 08:07:34;;;;;;;26.10;13.90;;;;;;;9.83;67.62;98511.08;105323;1261;74214;-25
2024/02/24 08:10:02;;;;;;;19.90;11.90;;;;;;;9.98;67.21;98510.29;105549;1263;76275;-25
2024/02/24 08:12:30;;;;;;;25.10;14.30;;;;;;;10.36;65.79;98521.80;105523;1263;72483;-26
2024/02/24 08:14:58;;;;;;;24.30;14.30;;;;;;;10.44;65.32;98521.98;105454;1262;62065;-25
2024/02/24 08:17:25;;;;;;;20.70;13.70;;;;;;;10.46;65.30;98529.43;105295;1263;61273;-26
2024/02/24 08:19:53;;;;;;;23.40;14.10;;;;;;;10.09;66.19;98520.66;105572;1257;73909;-25
2024/02/24 08:22:20;;;;;;;19.00;11.30;;;;;;;9.98;66.95;98525.63;105540;1263;76247;-25
2024/02/24 08:24:47;;;;;;;16.80;9.60;;;;;;;9.97;67.12;98519.55;105264;1269;72609;-26
2024/02/24 08:27:14;;;;;;;19.40;12.50;;;;;;;10.44;65.90;98520.25;105524;1257;61246;-26
2024/02/24 08:29:41;;;;;;;16.80;11.40;;;;;;;10.60;65.07;98528.48;105626;1260;61131;-27
2024/02/24 08:32:08;;;;;;;17.10;11.00;;;;;;;10.58;65.07;98534.09;105469;1262;74270;-27
2024/02/24 08:34:36;;;;;;;17.50;11.30;;;;;;;10.52;65.37;98535.98;105607;1261;74476;-26
2024/02/24 08:37:04;;;;;;;20.00;12.50;;;;;;;10.33;65.80;98540.80;105579;1257;72461;-26
2024/02/24 08:39:31;;;;;;;14.90;8.10;;;;;;;10.03;66.71;98534.52;105491;1261;61153;-27
2024/02/24 08:42:01;;;;;;;14.70;9.40;;;;;;;10.49;65.65;98533.86;105276;1259;61172;-26
2024/02/24 08:44:29;;;;;;;17.60;10.80;;;;;;;10.83;64.36;98525.42;105186;1262;73772;-27
2024/02/24 08:46:56;;;;;;;21.80;13.00;;;;;;;10.79;64.23;98521.98;105410;1263;73124;-26
2024/02/24 08:49:23;;;;;;;24.60;14.00;;;;;;;10.73;64.48;98522.17;105552;1260;72625;-27
2024/02/24 08:51:50;;;;;;;15.60;10.30;;;;;;;10.64;65.19;98522.21;105542;1263;61144;-27
2024/02/24 08:54:20;;;;;;;26.50;13.10;;;;;;;10.59;65.48;98526.74;105547;1270;61192;-27
2024/02/24 08:56:48;;;;;;;21.80;11.10;;;;;;;10.30;66.18;98525.38;105228;1257;72630;-27
2024/02/24 08:59:15;;;;;;;14.90;9.20;;;;;;;10.63;65.51;98521.80;105299;1257;74865;-27
2024/02/24 09:01:42;;;;;;;19.80;11.60;;;;;;;11.06;63.94;98524.38;105518;1258;72627;-27
2024/02/24 09:04:10;;;;;;;20.80;11.70;;;;;;;11.12;63.91;98521.74;105342;1262;61062;-26
2024/02/24 09:06:37;;;;;;;15.50;10.90;;;;;;;11.24;63.82;98515.07;105295;1262;61204;-26
2024/02/24 09:09:04;;;;;;;18.30;10.60;;;;;;;11.27;63.70;98510.44;105552;1263;73702;-26
2024/02/24 09:11:32;;;;;;;18.20;11.50;;;;;;;11.39;63.61;98512.66;105676;1263;74405;-26
2024/02/24 09:13:59;;;;;;;16.40;10.10;;;;;;;11.36;63.29;98512.75;105458;1257;72665;-26
2024/02/24 09:16:26;;;;;;;18.60;12.40;;;;;;;11.28;63.15;98511.60;105264;1261;61084;-26
2024/02/24 09:18:53;;;;;;;19.20;11.80;;;;;;;11.32;63.24;98510.70;105366;1263;61170;-26
2024/02/24 09:21:20;;;;;;;17.70;11.20;;;;;;;11.21;63.51;98518.52;105657;1257;72804;-26
2024/02/24 09:23:47;;;;;;;19.80;10.60;;;;;;;11.20;64.06;98529.35;105586;1261;74103;-26
2024/02/24 09:26:15;;;;;;;16.40;10.20;;;;;;;11.73;63.03;98528.93;105557;1264;72533;-26
2024/02/24 09:28:43;;;;;;;18.40;10.00;;;;;;;12.21;61.13;98531.98;105565;1263;61984;-26
2024/02/24 09:31:11;;;;;;;16.60;10.10;;;;;;;12.18;60.18;98527.50;105379;1259;61108;-26
2024/02/24 09:33:38;;;;;;;23.90;11.40;;;;;;;11.84;61.31;98536.33;105403;1262;73750;-26
2024/02/24 09:36:06;;;;;;;16.20;10.10;;;;;;;11.58;62.27;98534.69;105528;1263;76048;-28
2024/02/24 09:38:33;;;;;;;20.20;10.70;;;;;;;11.41;62.90;98535.39;105519;1264;71517;-27
2024/02/24 09:41:01;;;;;;;21.30;11.30;;;;;;;11.45;63.03;98533.84;105479;1262;61121;-27
2024/02/24 09:43:28;;;;;;;17.50;10.10;;;;;;;11.26;63.37;98534.89;105306;1261;61651;-27
2024/02/24 09:45:55;;;;;;;15.40;10.80;;;;;;;11.12;63.95;98535.80;105411;1262;73822;-27
2024/02/24 09:48:23;;;;;;;14.00;9.00;;;;;;;11.04;64.28;98537.45;105609;1261;74089;-25
2024/02/24 09:50:50;;;;;;;24.00;11.20;;;;;;;11.42;63.85;98538.80;105606;1263;72692;-25
2024/02/24 09:53:18;;;;;;;29.70;14.70;;;;;;;12.13;61.41;98548.20;105641;1263;61166;-26
2024/02/24 09:55:45;;;;;;;17.50;10.10;;;;;;;12.15;60.96;98552.92;105564;1258;61243;-26
2024/02/24 09:58:12;;;;;;;15.40;9.80;;;;;;;11.97;61.04;98550.73;105583;1257;73492;-25
2024/02/24 10:00:41;;;;;;;14.90;9.80;;;;;;;11.62;62.08;98552.58;105378;1267;74097;-25
2024/02/24 10:03:10;;;;;;;17.40;11.00;;;;;;;11.46;62.67;98556.67;105427;1261;72903;-25
2024/02/24 10:05:39;;;;;;;16.70;10.50;;;;;;;11.58;62.17;98559.45;105585;1262;61132;-26
2024/02/24 10:08:07;;;;;;;20.10;10.10;;;;;;;11.60;62.41;98553.45;105535;1263;61154;-26
2024/02/24 10:10:34;;;;;;;12.60;9.10;;;;;;;11.72;62.22;98550.45;105417;1263;73883;-25
2024/02/24 10:13:02;;;;;;;13.90;8.80;;;;;;;12.13;60.71;98553.40;105550;1262;74449;-26
2024/02/24 10:15:29;;;;;;;21.30;10.40;;;;;;;12.31;60.23;98554.52;105632;1260;74313;-27
2024/02/24 10:17:57;;;;;;;15.50;10.30;;;;;;;12.32;59.82;98553.48;105500;1255;61055;-26
2024/02/24 10:20:25;;;;;;;16.30;9.60;;;;;;;12.39;59.78;98545.53;105615;1261;62180;-25
2024/02/24 10:22:52;;;;;;;13.50;9.20;;;;;;;12.27;60.14;98553.14;105611;1257;73801;-25
2024/02/24 10:25:20;;;;;;;18.50;10.10;;;;;;;11.97;61.03;98556.42;105499;1257;76062;-25
2024/02/24 10:27:47;;;;;;;17.30;10.30;;;;;;;11.89;61.61;98556.90;105525;1257;74231;-25
2024/02/24 10:30:15;;;;;;;18.20;10.60;;;;;;;11.90;61.54;98547.39;105522;1266;61992;-25
2024/02/24 10:32:43;;;;;;;19.90;10.30;;;;;;;11.92;61.70;98547.08;105309;1260;61113;-29
2024/02/24 10:35:11;;;;;;;16.40;10.20;;;;;;;11.91;61.41;98538.98;105512;1263;75537;-26
2024/02/24 10:37:38;;;;;;;19.00;9.90;;;;;;;11.90;61.37;98531.59;105522;1260;75953;-26
2024/02/24 10:40:25;;;;;;;19.00;9.70;;;;;;;11.87;61.38;98527.99;105427;1257;72713;-26
2024/02/24 10:42:53;;;;;;;15.50;10.20;;;;;;;11.88;61.87;98522.35;105588;1259;61935;-26
2024/02/24 10:45:20;;;;;;;19.20;9.90;;;;;;;11.88;61.18;98511.88;105408;1263;61153;-26
2024/02/24 10:47:49;;;;;;;18.80;10.10;;;;;;;11.78;61.51;98513.06;105501;1261;75288;-26
2024/02/24 10:50:19;;;;;;;11.90;6.70;;;;;;;11.70;62.26;98507.54;105250;1263;75379;-26
2024/02/24 10:52:46;;;;;;;15.30;7.40;;;;;;;12.38;60.63;98500.21;105547;1260;72685;-26
2024/02/24 10:55:15;;;;;;;13.30;9.00;;;;;;;12.69;59.71;98503.60;105612;1258;61643;-26
2024/02/24 10:57:42;;;;;;;15.60;9.30;;;;;;;12.97;59.33;98516.60;105581;1260;61443;-26
2024/02/24 11:00:37;;;;;;;16.70;9.70;;;;;;;13.21;58.86;98539.27;105440;1263;75369;-26
2024/02/24 11:03:05;;;;;;;11.60;8.70;;;;;;;13.47;58.31;98542.60;105513;1263;73184;-26
2024/02/24 11:05:34;;;;;;;13.40;9.10;;;;;;;13.13;57.92;98539.67;105626;1263;72624;-26
2024/02/24 11:08:01;;;;;;;16.40;9.00;;;;;;;12.89;58.47;98528.51;105230;1264;61285;-26
2024/02/24 11:10:33;;;;;;;12.00;8.00;;;;;;;12.83;58.69;98526.48;105647;1269;61963;-26
2024/02/24 11:13:01;;;;;;;15.50;9.00;;;;;;;12.78;58.67;98533.27;105419;1258;75406;-26
2024/02/24 11:15:28;;;;;;;16.20;9.60;;;;;;;12.60;59.27;98539.01;105465;1263;74428;-26
2024/02/24 11:17:57;;;;;;;15.00;7.90;;;;;;;12.68;59.09;98553.02;105349;1260;74243;-26
2024/02/24 11:20:37;;;;;;;17.10;8.50;;;;;;;12.64;59.08;98549.20;105657;1259;61856;-26
2024/02/24 11:23:17;;;;;;;12.60;8.80;;;;;;;12.57;59.35;98539.94;105671;1260;61736;-26
2024/02/24 11:25:45;;;;;;;12.60;7.40;;;;;;;12.59;59.39;98535.94;105562;1262;74472;-26
2024/02/24 11:28:21;;;;;;;16.60;9.40;;;;;;;12.64;59.07;98532.29;105666;1261;73334;-26
2024/02/24 11:30:51;;;;;;;13.40;8.10;;;;;;;12.71;59.50;98539.36;105519;1257;73742;-26
2024/02/24 11:33:26;;;;;;;13.60;7.40;;;;;;;12.61;59.78;98542.19;105622;1262;61095;-26
2024/02/24 11:35:54;;;;;;;16.20;8.90;;;;;;;12.37;60.21;98545.17;105606;1261;60981;-26
2024/02/24 11:38:22;;;;;;;13.60;7.70;;;;;;;12.41;60.29;98540.45;105588;1270;75679;-26